sensor_id;sensor_type;location;lat;lon;timestamp;temperature;humidity
38798;SHT11;24546;52.240;16.826;2023-02-28T00:03:39;2.90;99.90
38798;SHT11;24546;52.240;16.826;2023-02-28T00:08:40;2.80;99.90
38798;SHT11;24546;52.240;16.826;2023-02-28T00:13:44;2.80;99.90
38798;SHT11;24546;52.240;16.826;2023-02-28T00:18:47;2.80;99.90
38798;SHT11;24546;52.240;16.826;2023-02-28T00:23:48;2.80;99.90
38798;SHT11;24546;52.240;16.826;2023-02-28T00:28:52;2.60;99.90
38798;SHT11;24546;52.240;16.826;2023-02-28T00:33:53;2.60;99.90
38798;SHT11;24546;52.240;16.826;2023-02-28T00:38:55;2.60;99.90
38798;SHT11;24546;52.240;16.826;2023-02-28T00:43:56;2.60;99.90
38798;SHT11;24546;52.240;16.826;2023-02-28T00:48:57;2.50;99.90
38798;SHT11;24546;52.240;16.826;2023-02-28T00:53:58;2.50;99.90
38798;SHT11;24546;52.240;16.826;2023-02-28T00:58:59;2.50;99.90
38798;SHT11;24546;52.240;16.826;2023-02-28T01:04:00;2.50;99.90
38798;SHT11;24546;52.240;16.826;2023-02-28T01:09:02;2.40;99.90
38798;SHT11;24546;52.240;16.826;2023-02-28T01:14:04;2.40;99.90
38798;SHT11;24546;52.240;16.826;2023-02-28T01:19:05;2.40;99.90
38798;SHT11;24546;52.240;16.826;2023-02-28T01:24:06;2.30;99.90
38798;SHT11;24546;52.240;16.826;2023-02-28T01:29:10;2.30;99.90
38798;SHT11;24546;52.240;16.826;2023-02-28T01:34:10;2.20;99.90
38798;SHT11;24546;52.240;16.826;2023-02-28T01:39:12;2.20;99.90
38798;SHT11;24546;52.240;16.826;2023-02-28T01:49:52;2.00;99.90
38798;SHT11;24546;52.240;16.826;2023-02-28T01:54:55;1.90;99.90
38798;SHT11;24546;52.240;16.826;2023-02-28T02:00:03;1.80;99.90
38798;SHT11;24546;52.240;16.826;2023-02-28T02:05:22;1.70;99.90
38798;SHT11;24546;52.240;16.826;2023-02-28T02:10:51;1.70;99.90
38798;SHT11;24546;52.240;16.826;2023-02-28T02:21:11;1.50;99.90
38798;SHT11;24546;52.240;16.826;2023-02-28T02:47:41;1.10;99.90
38798;SHT11;24546;52.240;16.826;2023-02-28T02:52:48;1.00;99.90
38798;SHT11;24546;52.240;16.826;2023-02-28T02:57:54;1.00;99.90
38798;SHT11;24546;52.240;16.826;2023-02-28T03:02:56;0.90;99.90
38798;SHT11;24546;52.240;16.826;2023-02-28T03:07:58;0.80;99.90
38798;SHT11;24546;52.240;16.826;2023-02-28T03:18:36;0.70;99.90
38798;SHT11;24546;52.240;16.826;2023-02-28T03:23:48;0.70;99.90
38798;SHT11;24546;52.240;16.826;2023-02-28T03:34:16;0.50;99.90
38798;SHT11;24546;52.240;16.826;2023-02-28T03:39:42;0.50;99.90
38798;SHT11;24546;52.240;16.826;2023-02-28T03:45:20;0.40;99.90
38798;SHT11;24546;52.240;16.826;2023-02-28T03:50:23;0.40;99.90
38798;SHT11;24546;52.240;16.826;2023-02-28T03:55:25;0.30;99.90
38798;SHT11;24546;52.240;16.826;2023-02-28T04:00:49;0.30;99.90
38798;SHT11;24546;52.240;16.826;2023-02-28T04:05:54;0.20;99.90
38798;SHT11;24546;52.240;16.826;2023-02-28T04:11:03;0.10;99.90
38798;SHT11;24546;52.240;16.826;2023-02-28T04:16:08;0.10;99.90
38798;SHT11;24546;52.240;16.826;2023-02-28T04:21:12;0.00;99.90
38798;SHT11;24546;52.240;16.826;2023-02-28T04:26:13;0.00;99.90
38798;SHT11;24546;52.240;16.826;2023-02-28T04:31:14;-0.10;99.90
38798;SHT11;24546;52.240;16.826;2023-02-28T04:36:15;-0.10;99.90
38798;SHT11;24546;52.240;16.826;2023-02-28T04:41:18;-0.20;99.90
38798;SHT11;24546;52.240;16.826;2023-02-28T04:46:20;-0.20;99.90
38798;SHT11;24546;52.240;16.826;2023-02-28T04:51:21;-0.20;99.90
38798;SHT11;24546;52.240;16.826;2023-02-28T04:56:23;-0.30;99.90
38798;SHT11;24546;52.240;16.826;2023-02-28T05:01:26;-0.50;99.90
38798;SHT11;24546;52.240;16.826;2023-02-28T05:06:29;-0.40;99.90
38798;SHT11;24546;52.240;16.826;2023-02-28T05:11:33;-0.40;99.90
38798;SHT11;24546;52.240;16.826;2023-02-28T05:16:35;-0.40;99.90
38798;SHT11;24546;52.240;16.826;2023-02-28T05:21:38;-0.40;99.90
38798;SHT11;24546;52.240;16.826;2023-02-28T05:26:42;-0.50;99.90
38798;SHT11;24546;52.240;16.826;2023-02-28T05:31:43;-0.50;99.90
38798;SHT11;24546;52.240;16.826;2023-02-28T05:36:44;-0.50;99.90
38798;SHT11;24546;52.240;16.826;2023-02-28T05:41:45;-0.60;99.90
38798;SHT11;24546;52.240;16.826;2023-02-28T05:46:46;-0.60;99.90
38798;SHT11;24546;52.240;16.826;2023-02-28T05:51:47;-0.60;99.90
38798;SHT11;24546;52.240;16.826;2023-02-28T05:56:48;-0.60;99.90
38798;SHT11;24546;52.240;16.826;2023-02-28T06:01:49;-0.60;99.90
38798;SHT11;24546;52.240;16.826;2023-02-28T06:06:50;-0.60;99.90
38798;SHT11;24546;52.240;16.826;2023-02-28T06:11:51;-0.70;99.90
38798;SHT11;24546;52.240;16.826;2023-02-28T06:16:52;-0.70;99.90
38798;SHT11;24546;52.240;16.826;2023-02-28T06:21:54;-0.60;99.90
38798;SHT11;24546;52.240;16.826;2023-02-28T06:26:55;-0.40;99.90
38798;SHT11;24546;52.240;16.826;2023-02-28T06:31:56;-0.10;99.90
38798;SHT11;24546;52.240;16.826;2023-02-28T06:36:57;-0.10;99.90
38798;SHT11;24546;52.240;16.826;2023-02-28T06:42:02;0.20;99.90
38798;SHT11;24546;52.240;16.826;2023-02-28T06:47:05;0.40;99.90
38798;SHT11;24546;52.240;16.826;2023-02-28T06:52:06;0.50;99.90
38798;SHT11;24546;52.240;16.826;2023-02-28T06:57:07;0.80;99.90
38798;SHT11;24546;52.240;16.826;2023-02-28T07:02:08;1.00;99.90
38798;SHT11;24546;52.240;16.826;2023-02-28T07:07:09;1.10;99.90
38798;SHT11;24546;52.240;16.826;2023-02-28T07:12:10;1.20;99.90
38798;SHT11;24546;52.240;16.826;2023-02-28T07:17:11;1.10;99.90
38798;SHT11;24546;52.240;16.826;2023-02-28T07:22:12;1.20;99.90
38798;SHT11;24546;52.240;16.826;2023-02-28T07:27:14;1.40;99.90
38798;SHT11;24546;52.240;16.826;2023-02-28T07:32:24;1.40;99.90
38798;SHT11;24546;52.240;16.826;2023-02-28T07:37:25;1.60;99.90
38798;SHT11;24546;52.240;16.826;2023-02-28T07:42:26;1.70;99.90
38798;SHT11;24546;52.240;16.826;2023-02-28T07:47:29;2.00;99.90
38798;SHT11;24546;52.240;16.826;2023-02-28T07:52:30;2.30;99.90
38798;SHT11;24546;52.240;16.826;2023-02-28T07:57:31;2.50;99.90
38798;SHT11;24546;52.240;16.826;2023-02-28T08:02:32;2.80;99.90
38798;SHT11;24546;52.240;16.826;2023-02-28T08:07:33;2.80;99.90
38798;SHT11;24546;52.240;16.826;2023-02-28T08:12:34;3.00;99.90
38798;SHT11;24546;52.240;16.826;2023-02-28T08:17:35;3.30;99.90
38798;SHT11;24546;52.240;16.826;2023-02-28T08:22:36;3.90;99.90
38798;SHT11;24546;52.240;16.826;2023-02-28T08:27:37;4.30;99.90
38798;SHT11;24546;52.240;16.826;2023-02-28T08:32:38;4.60;99.90
38798;SHT11;24546;52.240;16.826;2023-02-28T08:37:39;4.80;99.90
38798;SHT11;24546;52.240;16.826;2023-02-28T08:42:40;5.00;99.90
38798;SHT11;24546;52.240;16.826;2023-02-28T08:47:41;5.30;99.90
38798;SHT11;24546;52.240;16.826;2023-02-28T08:52:43;5.50;99.90
38798;SHT11;24546;52.240;16.826;2023-02-28T08:57:44;5.80;99.90
38798;SHT11;24546;52.240;16.826;2023-02-28T09:02:45;6.20;99.90
38798;SHT11;24546;52.240;16.826;2023-02-28T09:07:46;6.50;99.90
38798;SHT11;24546;52.240;16.826;2023-02-28T09:12:47;6.60;98.50
38798;SHT11;24546;52.240;16.826;2023-02-28T09:17:48;6.90;98.20
38798;SHT11;24546;52.240;16.826;2023-02-28T09:22:49;6.90;97.60
38798;SHT11;24546;52.240;16.826;2023-02-28T09:27:58;6.90;96.40
38798;SHT11;24546;52.240;16.826;2023-02-28T09:32:59;7.10;96.20
38798;SHT11;24546;52.240;16.826;2023-02-28T09:38:00;7.40;96.20
38798;SHT11;24546;52.240;16.826;2023-02-28T09:43:04;7.80;96.10
38798;SHT11;24546;52.240;16.826;2023-02-28T09:48:14;8.10;93.80
38798;SHT11;24546;52.240;16.826;2023-02-28T09:53:33;8.10;94.30
38798;SHT11;24546;52.240;16.826;2023-02-28T09:58:47;8.20;92.60
38798;SHT11;24546;52.240;16.826;2023-02-28T10:04:14;8.30;92.00
38798;SHT11;24546;52.240;16.826;2023-02-28T10:09:19;8.40;92.10
38798;SHT11;24546;52.240;16.826;2023-02-28T10:14:33;8.80;93.20
38798;SHT11;24546;52.240;16.826;2023-02-28T10:24:52;8.40;91.60
38798;SHT11;24546;52.240;16.826;2023-02-28T10:29:55;8.20;92.40
38798;SHT11;24546;52.240;16.826;2023-02-28T10:45:18;8.30;91.00
38798;SHT11;24546;52.240;16.826;2023-02-28T10:50:50;8.60;90.10
38798;SHT11;24546;52.240;16.826;2023-02-28T10:55:59;9.00;89.90
38798;SHT11;24546;52.240;16.826;2023-02-28T11:01:01;8.90;87.80
38798;SHT11;24546;52.240;16.826;2023-02-28T11:06:15;8.90;88.10
38798;SHT11;24546;52.240;16.826;2023-02-28T11:11:21;8.90;86.70
38798;SHT11;24546;52.240;16.826;2023-02-28T11:16:33;8.70;89.20
38798;SHT11;24546;52.240;16.826;2023-02-28T11:21:36;8.60;86.90
38798;SHT11;24546;52.240;16.826;2023-02-28T11:26:44;8.40;88.80
38798;SHT11;24546;52.240;16.826;2023-02-28T11:37:03;8.40;88.20
38798;SHT11;24546;52.240;16.826;2023-02-28T11:47:41;8.70;88.00
38798;SHT11;24546;52.240;16.826;2023-02-28T11:52:53;8.90;87.30
38798;SHT11;24546;52.240;16.826;2023-02-28T12:03:33;9.20;84.90
38798;SHT11;24546;52.240;16.826;2023-02-28T12:08:58;9.00;84.10
38798;SHT11;24546;52.240;16.826;2023-02-28T12:25:13;8.90;86.00
38798;SHT11;24546;52.240;16.826;2023-02-28T12:30:25;9.00;84.50
38798;SHT11;24546;52.240;16.826;2023-02-28T12:35:33;8.60;84.30
38798;SHT11;24546;52.240;16.826;2023-02-28T12:40:47;7.90;85.40
38798;SHT11;24546;52.240;16.826;2023-02-28T12:46:21;7.70;87.70
38798;SHT11;24546;52.240;16.826;2023-02-28T12:51:24;7.90;86.30
38798;SHT11;24546;52.240;16.826;2023-02-28T12:56:50;7.60;85.20
38798;SHT11;24546;52.240;16.826;2023-02-28T13:02:24;7.70;86.80
38798;SHT11;24546;52.240;16.826;2023-02-28T13:08:01;7.80;86.10
38798;SHT11;24546;52.240;16.826;2023-02-28T13:13:05;7.70;86.40
38798;SHT11;24546;52.240;16.826;2023-02-28T13:18:38;7.50;87.50
38798;SHT11;24546;52.240;16.826;2023-02-28T13:34:16;6.90;88.60
38798;SHT11;24546;52.240;16.826;2023-02-28T13:50:18;6.80;82.90
38798;SHT11;24546;52.240;16.826;2023-02-28T13:55:35;6.70;84.10
38798;SHT11;24546;52.240;16.826;2023-02-28T14:05:47;6.80;85.40
38798;SHT11;24546;52.240;16.826;2023-02-28T14:10:51;6.70;86.50
38798;SHT11;24546;52.240;16.826;2023-02-28T14:16:04;6.70;85.40
38798;SHT11;24546;52.240;16.826;2023-02-28T14:27:21;6.60;86.40
38798;SHT11;24546;52.240;16.826;2023-02-28T14:37:38;6.70;88.30
38798;SHT11;24546;52.240;16.826;2023-02-28T14:42:48;6.70;87.80
38798;SHT11;24546;52.240;16.826;2023-02-28T14:47:50;6.70;87.10
38798;SHT11;24546;52.240;16.826;2023-02-28T14:52:53;6.60;87.80
38798;SHT11;24546;52.240;16.826;2023-02-28T14:57:58;6.50;88.40
38798;SHT11;24546;52.240;16.826;2023-02-28T15:03:11;6.50;88.40
38798;SHT11;24546;52.240;16.826;2023-02-28T15:08:17;6.50;88.30
38798;SHT11;24546;52.240;16.826;2023-02-28T15:13:19;6.30;87.70
38798;SHT11;24546;52.240;16.826;2023-02-28T15:23:59;6.20;90.00
38798;SHT11;24546;52.240;16.826;2023-02-28T15:29:23;6.30;89.10
38798;SHT11;24546;52.240;16.826;2023-02-28T15:34:40;6.20;89.60
38798;SHT11;24546;52.240;16.826;2023-02-28T15:39:42;6.10;90.20
38798;SHT11;24546;52.240;16.826;2023-02-28T15:44:45;6.10;90.50
38798;SHT11;24546;52.240;16.826;2023-02-28T15:49:47;6.00;90.70
38798;SHT11;24546;52.240;16.826;2023-02-28T15:54:49;5.90;91.00
38798;SHT11;24546;52.240;16.826;2023-02-28T15:59:56;5.80;91.80
38798;SHT11;24546;52.240;16.826;2023-02-28T16:10:17;5.50;93.30
38798;SHT11;24546;52.240;16.826;2023-02-28T16:15:21;5.30;93.80
38798;SHT11;24546;52.240;16.826;2023-02-28T16:20:30;5.10;94.40
38798;SHT11;24546;52.240;16.826;2023-02-28T16:25:39;5.00;94.20
38798;SHT11;24546;52.240;16.826;2023-02-28T16:30:40;4.90;94.60
38798;SHT11;24546;52.240;16.826;2023-02-28T16:35:41;4.70;95.50
38798;SHT11;24546;52.240;16.826;2023-02-28T16:40:42;4.50;95.60
38798;SHT11;24546;52.240;16.826;2023-02-28T16:45:43;4.30;96.00
38798;SHT11;24546;52.240;16.826;2023-02-28T16:50:45;4.10;95.90
38798;SHT11;24546;52.240;16.826;2023-02-28T16:55:45;4.10;96.30
38798;SHT11;24546;52.240;16.826;2023-02-28T17:00:47;3.90;96.50
38798;SHT11;24546;52.240;16.826;2023-02-28T17:05:49;3.80;97.30
38798;SHT11;24546;52.240;16.826;2023-02-28T17:10:50;3.70;97.50
38798;SHT11;24546;52.240;16.826;2023-02-28T17:15:51;3.60;97.60
38798;SHT11;24546;52.240;16.826;2023-02-28T17:20:52;3.50;97.90
38798;SHT11;24546;52.240;16.826;2023-02-28T17:25:53;3.40;98.20
38798;SHT11;24546;52.240;16.826;2023-02-28T17:30:54;3.30;98.70
38798;SHT11;24546;52.240;16.826;2023-02-28T17:35:55;3.20;99.00
38798;SHT11;24546;52.240;16.826;2023-02-28T17:40:56;3.00;98.90
38798;SHT11;24546;52.240;16.826;2023-02-28T17:46:00;2.90;99.00
38798;SHT11;24546;52.240;16.826;2023-02-28T17:51:01;2.80;99.30
38798;SHT11;24546;52.240;16.826;2023-02-28T17:56:02;2.70;99.00
38798;SHT11;24546;52.240;16.826;2023-02-28T18:01:03;2.60;99.10
38798;SHT11;24546;52.240;16.826;2023-02-28T18:06:04;2.50;99.20
38798;SHT11;24546;52.240;16.826;2023-02-28T18:11:05;2.40;99.40
38798;SHT11;24546;52.240;16.826;2023-02-28T18:16:08;2.40;99.90
38798;SHT11;24546;52.240;16.826;2023-02-28T18:21:11;2.30;99.90
38798;SHT11;24546;52.240;16.826;2023-02-28T18:26:13;2.30;99.90
38798;SHT11;24546;52.240;16.826;2023-02-28T18:31:17;2.20;99.90
38798;SHT11;24546;52.240;16.826;2023-02-28T18:36:20;2.10;99.90
38798;SHT11;24546;52.240;16.826;2023-02-28T18:41:21;2.00;99.90
38798;SHT11;24546;52.240;16.826;2023-02-28T18:46:22;1.90;99.90
38798;SHT11;24546;52.240;16.826;2023-02-28T18:51:24;1.80;99.90
38798;SHT11;24546;52.240;16.826;2023-02-28T18:56:26;1.80;99.90
38798;SHT11;24546;52.240;16.826;2023-02-28T19:01:29;1.70;99.90
38798;SHT11;24546;52.240;16.826;2023-02-28T19:06:32;1.60;99.90
38798;SHT11;24546;52.240;16.826;2023-02-28T19:11:33;1.50;99.90
38798;SHT11;24546;52.240;16.826;2023-02-28T19:16:35;1.40;99.90
38798;SHT11;24546;52.240;16.826;2023-02-28T19:21:35;1.40;99.90
38798;SHT11;24546;52.240;16.826;2023-02-28T19:26:36;1.30;99.90
38798;SHT11;24546;52.240;16.826;2023-02-28T19:31:38;1.20;99.90
38798;SHT11;24546;52.240;16.826;2023-02-28T19:36:39;1.10;99.90
38798;SHT11;24546;52.240;16.826;2023-02-28T19:41:40;1.00;99.90
38798;SHT11;24546;52.240;16.826;2023-02-28T19:46:41;0.90;99.90
38798;SHT11;24546;52.240;16.826;2023-02-28T19:51:42;0.90;99.90
38798;SHT11;24546;52.240;16.826;2023-02-28T19:56:44;0.80;99.90
38798;SHT11;24546;52.240;16.826;2023-02-28T20:01:45;0.70;99.90
38798;SHT11;24546;52.240;16.826;2023-02-28T20:06:47;0.70;99.90
38798;SHT11;24546;52.240;16.826;2023-02-28T20:11:48;0.60;99.90
38798;SHT11;24546;52.240;16.826;2023-02-28T20:16:50;0.50;99.90
38798;SHT11;24546;52.240;16.826;2023-02-28T20:21:51;0.50;99.90
38798;SHT11;24546;52.240;16.826;2023-02-28T20:26:52;0.40;99.90
38798;SHT11;24546;52.240;16.826;2023-02-28T20:31:57;0.30;99.90
38798;SHT11;24546;52.240;16.826;2023-02-28T20:36:58;0.30;99.90
38798;SHT11;24546;52.240;16.826;2023-02-28T20:41:59;0.20;99.90
38798;SHT11;24546;52.240;16.826;2023-02-28T20:47:00;0.20;99.90
38798;SHT11;24546;52.240;16.826;2023-02-28T20:52:01;0.20;99.90
38798;SHT11;24546;52.240;16.826;2023-02-28T20:57:03;0.10;99.90
38798;SHT11;24546;52.240;16.826;2023-02-28T21:02:04;0.00;99.90
38798;SHT11;24546;52.240;16.826;2023-02-28T21:07:05;0.00;99.90
38798;SHT11;24546;52.240;16.826;2023-02-28T21:12:06;-0.10;99.90
38798;SHT11;24546;52.240;16.826;2023-02-28T21:17:07;-0.10;99.90
38798;SHT11;24546;52.240;16.826;2023-02-28T21:22:10;-0.20;99.90
38798;SHT11;24546;52.240;16.826;2023-02-28T21:27:11;-0.30;99.90
38798;SHT11;24546;52.240;16.826;2023-02-28T21:32:12;-0.30;99.90
38798;SHT11;24546;52.240;16.826;2023-02-28T21:37:14;-0.40;99.90
38798;SHT11;24546;52.240;16.826;2023-02-28T21:42:15;-0.40;99.90
38798;SHT11;24546;52.240;16.826;2023-02-28T21:47:16;-0.50;99.90
38798;SHT11;24546;52.240;16.826;2023-02-28T21:52:17;-0.60;99.90
38798;SHT11;24546;52.240;16.826;2023-02-28T21:57:21;-0.60;99.90
38798;SHT11;24546;52.240;16.826;2023-02-28T22:02:22;-0.70;99.90
38798;SHT11;24546;52.240;16.826;2023-02-28T22:07:23;-0.70;99.90
38798;SHT11;24546;52.240;16.826;2023-02-28T22:12:24;-0.70;99.90
38798;SHT11;24546;52.240;16.826;2023-02-28T22:17:25;-0.80;99.90
38798;SHT11;24546;52.240;16.826;2023-02-28T22:22:26;-0.80;99.90
38798;SHT11;24546;52.240;16.826;2023-02-28T22:27:27;-0.80;99.90
38798;SHT11;24546;52.240;16.826;2023-02-28T22:32:28;-0.80;99.90
38798;SHT11;24546;52.240;16.826;2023-02-28T22:37:29;-0.90;99.90
38798;SHT11;24546;52.240;16.826;2023-02-28T22:42:33;-1.00;99.90
38798;SHT11;24546;52.240;16.826;2023-02-28T22:47:35;-1.00;99.90
38798;SHT11;24546;52.240;16.826;2023-02-28T22:52:39;-1.10;99.90
38798;SHT11;24546;52.240;16.826;2023-02-28T22:57:40;-1.00;99.90
38798;SHT11;24546;52.240;16.826;2023-02-28T23:02:42;-1.20;99.90
38798;SHT11;24546;52.240;16.826;2023-02-28T23:07:43;-1.20;99.90
38798;SHT11;24546;52.240;16.826;2023-02-28T23:12:44;-1.20;99.90
38798;SHT11;24546;52.240;16.826;2023-02-28T23:17:51;-1.30;99.90
38798;SHT11;24546;52.240;16.826;2023-02-28T23:22:52;-1.40;99.90
38798;SHT11;24546;52.240;16.826;2023-02-28T23:27:53;-1.40;99.90
38798;SHT11;24546;52.240;16.826;2023-02-28T23:32:54;-1.50;99.90
38798;SHT11;24546;52.240;16.826;2023-02-28T23:37:56;-1.60;99.90
38798;SHT11;24546;52.240;16.826;2023-02-28T23:42:58;-1.60;99.90
38798;SHT11;24546;52.240;16.826;2023-02-28T23:47:59;-1.60;99.90
38798;SHT11;24546;52.240;16.826;2023-02-28T23:53:00;-1.60;99.90
38798;SHT11;24546;52.240;16.826;2023-02-28T23:58:01;-1.70;99.90
